Cristian Almiron

Recruteur en chef - Cerro Porteno
20 Janv 2028
Jeudi
Processus

Personnalité

Adaptabilité (19) Ambition (2) Controverse (19) Loyauté (14) Pression (2) Professionnalisme (12) Sportivité (8) Tempérament (11)

Profil

Style d'entraînement Démocratique
Diplôme Continental C
Détermination 9
Gestion des joueurs 7
Motivation 9
Discipline 12
Satisfaction professionnelle
100%
Fatigue
0%
Rôle Recruteur en chef
Salaire 75.3K p/s
Contrat 14.03.2029

Performance

Comportement Bon
Efficacité de l'entraînement
48%
Développement des joueurs
30%
Prévention des blessures
30%
Mise en place tactique
55%

Événements récents

A participé à une réunion de recrutement maintenant
A recommandé une cible de transfert maintenant
A recommandé une cible de transfert maintenant
A recommandé une cible de transfert maintenant
A recommandé une cible de transfert maintenant
A recommandé une cible de transfert maintenant
A recommandé une cible de transfert maintenant
En formation continue maintenant

Suivi en cours

163
Joueur Club Statut Capacité Confiance Observé Dernière observation Dernier vote
Álex Forés Burgos Actif 142 / 127 40% 1 18.01.2028 -
Luca Langoni Colorado Rapids Actif 127 / 121 40% 1 18.01.2028 -
Yassir Zabiri Stade Rennais Actif 136 / 156 40% 1 18.01.2028 -
Arthur Cabral Botafogo Actif 131 / 127 40% 2 17.01.2028 -
Lucas Boyé Alavés Actif 142 / 142 40% 1 17.01.2028 -
Juan Carlos Arana Racing Santander Actif 139 / 136 40% 1 17.01.2028 -
Bénie Traoré New York City Actif 136 / 113 40% 7 14.01.2028 -
Neal Maupay Olympique de Marseille Actif 146 / 132 40% 1 14.01.2028 -
Juanmi Latasa Valladolid Actif 137 / 133 40% 1 14.01.2028 -
Fábio Carvalho Sheffield Wednesday Actif 143 / 144 40% 1 13.01.2028 -
Jonathan Dubasin Osasuna Actif 152 / 139 40% 1 13.01.2028 -
Borja Mayoral Getafe Actif 141 / 130 40% 1 13.01.2028 -
Leonardo Campana New England Revolution Actif 131 / 113 40% 3 12.01.2028 -
Javi Puado Espanyol Actif 157 / 137 40% 2 12.01.2028 -
Ferreirinha Sport Recife Actif 130 / 132 40% 2 12.01.2028 -
Jon Bautista Eibar Actif 129 / 133 40% 2 10.01.2028 -
Jorge De Frutos Rayo Vallecano Actif 143 / 141 40% 1 10.01.2028 -
Agustín Anello Philadelphia Union Actif 127 / 125 40% 1 10.01.2028 -
Germán Valera Elche Actif 145 / 130 40% 2 09.01.2028 -
Diber Cambindo Toulouse FC Actif 134 / 129 40% 1 09.01.2028 -
Alexis Cuello San Lorenzo Actif 124 / 133 40% 1 09.01.2028 -
Carlos Vinícius Grêmio Actif 134 / 140 40% 1 07.01.2028 -
Ángel Correa River Plate Actif 142 / 141 40% 1 07.01.2028 -
Ez Abde Girona Actif 153 / 146 40% 1 06.01.2028 -
Brennan Johnson Stoke City Actif 155 / 155 40% 1 05.01.2028 -
Alejo Veliz Bahia Actif 140 / 130 40% 2 04.01.2028 -
Abel Ruiz Girona Actif 146 / 156 40% 1 04.01.2028 -
Lucas Sanabria Libertad Rapport prêt 114 / 115 79% 1 03.12.2027 Approuver
Franco Ibarra Rosario Central Actif 132 / 136 40% 4 28.11.2027 -
Ismaël Bennacer Malmo FF Actif 144 / 148 40% 2 28.11.2027 -
Teboho Mokoena Independiente Actif 140 / 143 40% 6 27.11.2027 -
Renan Lodi Atlético Mineiro Actif 141 / 134 40% 2 27.11.2027 -
Nicolás Romero Minnesota United FC Actif 140 / 143 40% 3 27.11.2027 -
Santiago González Tigre Actif 131 / 137 40% 5 25.11.2027 -
José Hurtado Bragantino Actif 127 / 131 40% 1 25.11.2027 -
Lucas Carrizo Newell's Old Boys Actif 125 / 117 40% 3 24.11.2027 -
Ayrton Costa Boca Juniors Actif 133 / 135 40% 3 24.11.2027 -
Arnau Martínez Valencia Actif 151 / 154 40% 2 24.11.2027 -
Kevin Paredes River Plate Actif 131 / 140 40% 7 23.11.2027 -
Aaron Herrera Charlotte Football Club Actif 121 / 116 40% 3 23.11.2027 -
Mateo Mendoza Godoy Cruz Actif 131 / 130 40% 9 23.11.2027 -
Bryan Ramírez FC Cincinnati Actif 125 / 129 40% 5 21.11.2027 -
Felipe Peña Biafore Lanús Actif 129 / 132 40% 3 21.11.2027 -
Sergio Reguilón Inter Miami CF Actif 137 / 124 40% 2 21.11.2027 -
Juan Carlos Portillo River Plate Actif 130 / 125 40% 4 20.11.2027 -
Paulo Henrique Vasco da Gama Actif 131 / 131 40% 2 20.11.2027 -
Omar El Hilali Espanyol Actif 158 / 148 40% 1 16.11.2027 -
Gonzalo Montiel River Plate Actif 133 / 122 40% 3 15.11.2027 -
Eduard Löwen San Jose Earthquakes Actif 132 / 141 40% 1 12.11.2027 -
Aníbal Moreno River Plate Actif 135 / 137 40% 5 09.11.2027 -
Brooke Norton-Cuffy Inter Miami CF Actif 139 / 149 40% 1 09.11.2027 -
Arthur Santos Actif 139 / 133 40% 1 05.11.2027 -
Marcus Holmgren Pedersen Valerenga Actif 130 / 141 40% 2 31.10.2027 -
Emil Breivik Molde Actif 133 / 118 40% 1 31.10.2027 -
Emanuel Mammana Vélez Actif 136 / 133 40% 3 30.10.2027 -
Loïc Williams Colorado Rapids Actif 121 / 127 40% 2 28.10.2027 -
Lucas Sanabria LA Galaxy Actif 137 / 121 40% 1 27.10.2027 -
Facundo Mura Inter Miami CF Actif 135 / 122 40% 2 22.10.2027 -
Alexandro Bernabei Internacional Actif 136 / 132 40% 1 19.10.2027 -
Sondre Auklend Bodo/Glimt Actif 139 / 115 40% 1 17.10.2027 -
José Luis Caicedo Barranquilla Actif 136 / 121 40% 1 16.10.2027 -
Emanuel Coronel Rosario Central Actif 126 / 119 40% 4 15.10.2027 -
Victor Castillo Ceará Actif 130 / 141 40% 1 10.10.2027 -
Juan Manuel García Guarani Actif 115 / 97 69% 1 19.07.2027 Approuver
Hugo Fernández Libertad Actif 125 / 110 69% 1 12.07.2027 Approuver
Jack Rudoni Coventry City Actif 144 / 139 40% 1 31.05.2027 -
Sorba Thomas Stoke City Actif 123 / 124 40% 1 31.05.2027 -
Florentino Luís Ipswich Town Actif 130 / 142 40% 1 30.12.2026 -
Juanlu Bournemouth Actif 145 / 144 40% 1 02.12.2026 -
Leandro Lozano Boca Juniors Actif 123 / 130 40% 1 02.12.2026 -
Aaron Hickey Brentford Actif 150 / 142 40% 1 02.12.2026 -
Ramiro Ruiz Rodríguez Atlético Tucumán Actif 117 / 125 40% 1 02.12.2026 -
Stanislav Agkatsev Sunderland Négociation 132 / 133 66% 1 01.12.2026 Approuver
Callum Hudson-Odoi Nottingham Forest Actif 140 / 137 40% 1 30.11.2026 -
Matko Miljevic Racing Club Actif 126 / 120 40% 1 30.11.2026 -
Gabriel Jesus Barcelona Actif 165 / 142 40% 8 28.11.2026 Observer
Tiago Palacios Estudiantes Actif 130 / 120 40% 3 28.11.2026 -
Tomás Molina Argentinos Juniors Actif 126 / 118 40% 2 28.11.2026 -
Oli McBurnie Hull City Actif 133 / 139 40% 3 28.11.2026 -
Enzo Le Fée Sunderland Actif 134 / 125 40% 1 28.11.2026 -
Tyler Adams Bournemouth Actif 143 / 144 40% 1 28.11.2026 -
Ruben van Bommel Ferencvaros Actif 139 / 134 40% 1 27.11.2026 -
Hany Mukhtar Spezia Actif 148 / 147 40% 1 27.11.2026 -
Santiago Longo Belgrano Actif 133 / 125 40% 2 25.11.2026 -
Luis Vázquez Birmingham Actif 137 / 127 40% 2 25.11.2026 -
Bertrand Traoré Sunderland Actif 144 / 126 40% 2 25.11.2026 -
Reda Khadra Qarabag Actif 140 / 115 40% 4 23.11.2026 -
Riley McGree Middlesbrough Actif 124 / 140 40% 1 23.11.2026 -
Edwuin Cetré Estudiantes Actif 126 / 121 40% 3 21.11.2026 -
Cameron Archer Southampton Actif 123 / 137 40% 1 21.11.2026 -
Matías Zaracho Racing Club Actif 123 / 132 40% 1 20.11.2026 -
Ryan Sessegnon Fulham Actif 133 / 143 40% 1 20.11.2026 -
Gonzalo Fulham Actif 142 / 153 40% 1 20.11.2026 -
Manfred Ugalde Spartak Moscow Actif 132 / 126 40% 5 19.11.2026 -
Wilson Isidor Sunderland Actif 144 / 140 40% 2 19.11.2026 -
Joe Gelhardt Hull City Actif 118 / 143 40% 1 19.11.2026 -
Youssoufa Moukoko FC Copenhagen Actif 126 / 116 40% 1 15.11.2026 -
Chuchu Ramírez Nacional Actif 137 / 143 40% 1 12.11.2026 -
Daniel Karlsbakk Sarpsborg 08 Actif 130 / 139 40% 1 11.11.2026 -
Marcelo Allende Mamelodi Sundowns Actif 138 / 121 40% 1 11.11.2026 -
Bamba Dieng Crvena Zvezda Actif 136 / 136 40% 2 06.11.2026 -
Breel Embolo Atlanta United FC Actif 148 / 126 40% 4 05.11.2026 -
Santiago Montiel Independiente Actif 125 / 134 40% 1 04.11.2026 -
Francisco Álvarez Argentinos Juniors Actif 126 / 119 40% 1 03.11.2026 -
Esequiel Barco Spartak Moscow Actif 147 / 121 40% 2 31.10.2026 -
Tomás Conechny Racing Club Actif 121 / 131 40% 1 30.10.2026 -
Gabriel Neves Estudiantes Actif 133 / 123 40% 1 30.10.2026 -
Morgan Guilavogui Real Salt Lake Actif 124 / 111 40% 6 29.10.2026 -
Moussa Dembélé CR Belouizdad Actif 120 / 122 40% 2 27.10.2026 -
Alexey Miranchuk St. Gallen Actif 132 / 126 40% 2 26.10.2026 -
Milton Giménez Boca Juniors Actif 132 / 118 40% 1 25.10.2026 -
Endrick Real Madrid Actif 134 / 143 40% 1 25.10.2026 -
Martín Ojeda Orlando City Actif 145 / 144 40% 4 24.10.2026 -
Brais Méndez Columbus Crew Actif 156 / 137 40% 3 22.10.2026 -
Leo Ceara Kashima Antlers Actif 148 / 145 40% 1 20.10.2026 -
Luca De La Torre Charlotte Football Club Actif 127 / 129 40% 1 20.10.2026 -
Mayckel Lahdo Malmo FF Actif 128 / 140 40% 1 20.10.2026 -
Facundo Miño Deportivo Riestra Actif 127 / 111 40% 1 20.10.2026 -
David Da Costa Portland Timbers Actif 116 / 135 40% 1 18.10.2026 -
Ammar Ramadan DAC Dunajska Streda Actif 129 / 138 40% 1 17.10.2026 -
Wessam Abou Ali Columbus Crew Actif 123 / 137 40% 2 15.10.2026 -
Luka Kurtovic NK Domzale Actif 140 / 120 40% 5 14.10.2026 -
Jordan Morris Seattle Sounders Actif 135 / 112 40% 3 14.10.2026 -
Pavel Bucha FC Cincinnati Actif 121 / 118 40% 1 14.10.2026 -
Jesus Ferreira Seattle Sounders Actif 120 / 129 40% 2 09.10.2026 -
Everton Bala Levski Actif 115 / 131 40% 1 08.10.2026 -
Keane Lewis-Potter Brentford Actif 144 / 146 40% 1 04.10.2026 -
Joaquín Pereyra Minnesota United FC Actif 124 / 116 40% 1 04.10.2026 -
Mutsuki Kato Sanfrecce Hiroshima Actif 133 / 144 40% 1 04.10.2026 -
Josh Sargent Toronto FC Actif 123 / 120 40% 3 03.10.2026 -
Duncan McGuire Houston Dynamo Actif 112 / 124 40% 4 27.09.2026 -
Oleksii Hutsuliak Polissia Actif 118 / 118 40% 2 25.09.2026 -
Santiago Rodríguez Columbus Crew Actif 126 / 117 40% 2 24.09.2026 -
Cheikh Sabaly Vancouver Whitecaps Actif 123 / 110 40% 1 24.09.2026 -
Alexander Aravena Portland Timbers Actif 124 / 122 40% 1 24.09.2026 -
Dejan Joveljić Seattle Sounders Actif 116 / 133 40% 2 22.09.2026 -
Fiete Arp OB Actif 138 / 123 40% 2 22.09.2026 -
Ivan Sergeev Dinamo Moscow Actif 138 / 119 40% 2 22.09.2026 -
Erik Prekop Gornik Zabrze Actif 133 / 126 40% 2 20.09.2026 -
Allan Saint-Maximin Charlotte Football Club Actif 153 / 125 40% 1 20.09.2026 -
Louis Munteanu DC United Actif 115 / 127 40% 2 19.09.2026 -
Dominik Fiola Haladas Actif 121 / 130 40% 1 19.09.2026 -
Rafael Navarro St. Louis CITY SC Actif 116 / 124 40% 2 18.09.2026 -
Marco Pašalić Orlando City Actif 128 / 127 40% 1 14.09.2026 -
Lewis Morgan SuperSport United Actif 116 / 127 40% 2 11.09.2026 -
Marcus Ingvartsen San Diego Football Club Actif 119 / 113 40% 1 10.09.2026 -
Antony Portland Timbers Actif 118 / 136 40% 1 07.09.2026 -
Luciano Gondou CSKA Moscow Actif 113 / 136 40% 2 03.09.2026 -
Tomás Chancalay Minnesota United FC Actif 114 / 116 40% 1 02.09.2026 -
Kévin Denkey FC Cincinnati Actif 111 / 121 40% 2 31.08.2026 -
Mateusz Bogusz Houston Dynamo Actif 119 / 116 40% 1 26.08.2026 -
Kwadwo Duah Ludogorets Actif 118 / 123 40% 1 26.08.2026 -
Yorbe Vertessen Red Bull Salzburg Actif 113 / 133 40% 2 22.08.2026 -
Pep Biel Charlotte Football Club Actif 117 / 142 40% 1 21.08.2026 -
Sam Surridge Nashville SC Actif 120 / 120 40% 1 19.08.2026 -
Mirlind Daku Spartak Moscow Actif 126 / 117 40% 1 16.08.2026 -
Kein Sato FC Tokyo Actif 116 / 131 40% 2 10.08.2026 -
Karol Świderski Panathinaikos Actif 121 / 126 40% 1 09.08.2026 -
Florin Tănase Omonoia Actif 140 / 110 40% 1 08.08.2026 -
Yarden Shua Beitar Jerusalem Actif 128 / 141 40% 1 04.08.2026 -
Andrija Živković PAOK Actif 152 / 139 40% 1 04.08.2026 -
Romain Del Castillo Osasuna Actif 151 / 129 40% 1 02.08.2026 -
Pablo Durán Celta Actif 129 / 130 40% 1 01.08.2026 -